sensor_id;sensor_type;location;lat;lon;timestamp;P1;durP1;ratioP1;P2;durP2;ratioP2
44434;SDS011;30138;20.964;105.830;2023-09-30T00:05:14;91.47;;;51.28;;
44434;SDS011;30138;20.964;105.830;2023-09-30T00:10:22;83.53;;;51.78;;
44434;SDS011;30138;20.964;105.830;2023-09-30T00:15:29;80.32;;;50.05;;
44434;SDS011;30138;20.964;105.830;2023-09-30T00:20:39;79.38;;;48.70;;
44434;SDS011;30138;20.964;105.830;2023-09-30T00:25:45;86.22;;;50.00;;
44434;SDS011;30138;20.964;105.830;2023-09-30T00:30:52;87.03;;;49.90;;
44434;SDS011;30138;20.964;105.830;2023-09-30T00:36:01;74.88;;;46.85;;
44434;SDS011;30138;20.964;105.830;2023-09-30T00:41:13;74.47;;;45.60;;
44434;SDS011;30138;20.964;105.830;2023-09-30T00:46:24;80.80;;;48.35;;
44434;SDS011;30138;20.964;105.830;2023-09-30T00:51:35;80.85;;;46.55;;
44434;SDS011;30138;20.964;105.830;2023-09-30T00:56:43;71.57;;;45.67;;
44434;SDS011;30138;20.964;105.830;2023-09-30T01:01:51;76.60;;;47.20;;
44434;SDS011;30138;20.964;105.830;2023-09-30T01:07:03;68.72;;;42.42;;
44434;SDS011;30138;20.964;105.830;2023-09-30T01:12:10;68.22;;;43.95;;
44434;SDS011;30138;20.964;105.830;2023-09-30T01:17:17;63.08;;;41.30;;
44434;SDS011;30138;20.964;105.830;2023-09-30T01:22:26;69.47;;;44.60;;
44434;SDS011;30138;20.964;105.830;2023-09-30T01:27:33;67.43;;;45.08;;
44434;SDS011;30138;20.964;105.830;2023-09-30T01:32:40;70.18;;;47.05;;
44434;SDS011;30138;20.964;105.830;2023-09-30T01:37:48;81.38;;;50.33;;
44434;SDS011;30138;20.964;105.830;2023-09-30T01:42:56;76.18;;;49.90;;
44434;SDS011;30138;20.964;105.830;2023-09-30T01:48:03;89.38;;;55.28;;
44434;SDS011;30138;20.964;105.830;2023-09-30T01:53:14;89.50;;;55.88;;
44434;SDS011;30138;20.964;105.830;2023-09-30T01:58:21;98.13;;;60.13;;
44434;SDS011;30138;20.964;105.830;2023-09-30T02:03:29;103.88;;;60.00;;
44434;SDS011;30138;20.964;105.830;2023-09-30T02:08:38;99.05;;;61.50;;
44434;SDS011;30138;20.964;105.830;2023-09-30T02:13:47;110.13;;;67.10;;
44434;SDS011;30138;20.964;105.830;2023-09-30T02:18:53;103.72;;;65.55;;
44434;SDS011;30138;20.964;105.830;2023-09-30T02:24:03;101.53;;;66.40;;
44434;SDS011;30138;20.964;105.830;2023-09-30T02:29:10;106.13;;;68.47;;
44434;SDS011;30138;20.964;105.830;2023-09-30T02:34:17;104.53;;;68.53;;
44434;SDS011;30138;20.964;105.830;2023-09-30T02:39:26;112.50;;;68.65;;
44434;SDS011;30138;20.964;105.830;2023-09-30T02:44:32;100.22;;;67.25;;
44434;SDS011;30138;20.964;105.830;2023-09-30T02:49:39;113.57;;;74.78;;
44434;SDS011;30138;20.964;105.830;2023-09-30T02:54:49;117.63;;;77.53;;
44434;SDS011;30138;20.964;105.830;2023-09-30T02:59:56;122.07;;;79.03;;
44434;SDS011;30138;20.964;105.830;2023-09-30T03:05:05;118.28;;;79.85;;
44434;SDS011;30138;20.964;105.830;2023-09-30T03:10:17;118.32;;;79.78;;
44434;SDS011;30138;20.964;105.830;2023-09-30T03:15:25;120.70;;;80.17;;
44434;SDS011;30138;20.964;105.830;2023-09-30T03:20:33;125.85;;;81.88;;
44434;SDS011;30138;20.964;105.830;2023-09-30T03:25:45;122.75;;;79.85;;
44434;SDS011;30138;20.964;105.830;2023-09-30T03:30:52;129.85;;;84.25;;
44434;SDS011;30138;20.964;105.830;2023-09-30T03:35:59;136.57;;;89.75;;
44434;SDS011;30138;20.964;105.830;2023-09-30T03:41:09;139.65;;;89.07;;
44434;SDS011;30138;20.964;105.830;2023-09-30T03:46:15;132.43;;;90.68;;
44434;SDS011;30138;20.964;105.830;2023-09-30T03:51:22;143.43;;;93.80;;
44434;SDS011;30138;20.964;105.830;2023-09-30T03:56:30;146.88;;;89.80;;
44434;SDS011;30138;20.964;105.830;2023-09-30T04:01:37;153.52;;;92.97;;
44434;SDS011;30138;20.964;105.830;2023-09-30T04:06:45;170.60;;;96.60;;
44434;SDS011;30138;20.964;105.830;2023-09-30T04:11:55;160.15;;;96.47;;
44434;SDS011;30138;20.964;105.830;2023-09-30T04:17:02;174.25;;;100.50;;
44434;SDS011;30138;20.964;105.830;2023-09-30T04:22:09;154.27;;;93.32;;
44434;SDS011;30138;20.964;105.830;2023-09-30T04:27:19;161.30;;;94.28;;
44434;SDS011;30138;20.964;105.830;2023-09-30T04:32:27;140.32;;;88.60;;
44434;SDS011;30138;20.964;105.830;2023-09-30T04:37:34;149.10;;;91.85;;
44434;SDS011;30138;20.964;105.830;2023-09-30T04:42:43;147.73;;;89.55;;
44434;SDS011;30138;20.964;105.830;2023-09-30T04:47:51;135.90;;;87.25;;
44434;SDS011;30138;20.964;105.830;2023-09-30T04:52:58;139.25;;;84.65;;
44434;SDS011;30138;20.964;105.830;2023-09-30T04:58:07;130.18;;;81.05;;
44434;SDS011;30138;20.964;105.830;2023-09-30T05:03:14;131.30;;;83.75;;
44434;SDS011;30138;20.964;105.830;2023-09-30T05:08:22;130.60;;;81.50;;
44434;SDS011;30138;20.964;105.830;2023-09-30T05:13:32;122.75;;;80.07;;
44434;SDS011;30138;20.964;105.830;2023-09-30T05:18:39;126.53;;;81.45;;
44434;SDS011;30138;20.964;105.830;2023-09-30T05:23:46;122.28;;;80.32;;
44434;SDS011;30138;20.964;105.830;2023-09-30T05:28:55;126.38;;;84.70;;
44434;SDS011;30138;20.964;105.830;2023-09-30T05:34:03;121.63;;;83.65;;
44434;SDS011;30138;20.964;105.830;2023-09-30T05:39:11;131.85;;;85.95;;
44434;SDS011;30138;20.964;105.830;2023-09-30T05:44:23;123.60;;;83.23;;
44434;SDS011;30138;20.964;105.830;2023-09-30T05:49:30;117.80;;;83.45;;
44434;SDS011;30138;20.964;105.830;2023-09-30T05:54:38;118.63;;;82.95;;
44434;SDS011;30138;20.964;105.830;2023-09-30T05:59:47;115.85;;;80.22;;
44434;SDS011;30138;20.964;105.830;2023-09-30T06:04:54;110.65;;;77.40;;
44434;SDS011;30138;20.964;105.830;2023-09-30T06:10:02;108.40;;;77.38;;
44434;SDS011;30138;20.964;105.830;2023-09-30T06:15:12;105.60;;;75.78;;
44434;SDS011;30138;20.964;105.830;2023-09-30T06:20:23;109.55;;;74.22;;
44434;SDS011;30138;20.964;105.830;2023-09-30T06:25:32;107.97;;;73.93;;
44434;SDS011;30138;20.964;105.830;2023-09-30T06:30:41;106.07;;;72.80;;
44434;SDS011;30138;20.964;105.830;2023-09-30T06:35:51;109.13;;;73.78;;
44434;SDS011;30138;20.964;105.830;2023-09-30T06:40:58;103.60;;;72.05;;
44434;SDS011;30138;20.964;105.830;2023-09-30T06:46:09;102.85;;;71.53;;
44434;SDS011;30138;20.964;105.830;2023-09-30T06:51:17;102.75;;;72.45;;
44434;SDS011;30138;20.964;105.830;2023-09-30T06:56:24;102.03;;;71.30;;
44434;SDS011;30138;20.964;105.830;2023-09-30T07:01:32;105.00;;;71.97;;
44434;SDS011;30138;20.964;105.830;2023-09-30T07:06:39;96.97;;;70.95;;
44434;SDS011;30138;20.964;105.830;2023-09-30T07:11:45;101.97;;;72.10;;
44434;SDS011;30138;20.964;105.830;2023-09-30T07:16:55;96.32;;;69.85;;
44434;SDS011;30138;20.964;105.830;2023-09-30T07:22:01;102.97;;;70.20;;
44434;SDS011;30138;20.964;105.830;2023-09-30T07:27:09;97.00;;;70.80;;
44434;SDS011;30138;20.964;105.830;2023-09-30T07:32:19;96.18;;;69.50;;
44434;SDS011;30138;20.964;105.830;2023-09-30T07:37:27;93.68;;;69.78;;
44434;SDS011;30138;20.964;105.830;2023-09-30T07:42:34;104.53;;;74.50;;
44434;SDS011;30138;20.964;105.830;2023-09-30T07:47:44;97.25;;;72.05;;
44434;SDS011;30138;20.964;105.830;2023-09-30T07:52:51;99.90;;;69.90;;
44434;SDS011;30138;20.964;105.830;2023-09-30T07:58:00;100.72;;;72.82;;
44434;SDS011;30138;20.964;105.830;2023-09-30T08:03:08;96.25;;;70.07;;
44434;SDS011;30138;20.964;105.830;2023-09-30T08:08:15;98.55;;;70.15;;
44434;SDS011;30138;20.964;105.830;2023-09-30T08:13:22;96.03;;;71.10;;
44434;SDS011;30138;20.964;105.830;2023-09-30T08:18:32;103.10;;;73.18;;
44434;SDS011;30138;20.964;105.830;2023-09-30T08:23:38;94.22;;;70.35;;
44434;SDS011;30138;20.964;105.830;2023-09-30T08:28:45;97.50;;;71.90;;
44434;SDS011;30138;20.964;105.830;2023-09-30T08:33:54;94.35;;;69.45;;
44434;SDS011;30138;20.964;105.830;2023-09-30T08:39:01;97.68;;;71.18;;
44434;SDS011;30138;20.964;105.830;2023-09-30T08:44:08;90.50;;;66.80;;
44434;SDS011;30138;20.964;105.830;2023-09-30T08:49:17;99.38;;;70.93;;
44434;SDS011;30138;20.964;105.830;2023-09-30T08:54:25;100.28;;;70.45;;
44434;SDS011;30138;20.964;105.830;2023-09-30T08:59:31;94.38;;;69.05;;
44434;SDS011;30138;20.964;105.830;2023-09-30T09:04:43;96.05;;;70.72;;
44434;SDS011;30138;20.964;105.830;2023-09-30T09:15:20;92.28;;;68.30;;
44434;SDS011;30138;20.964;105.830;2023-09-30T09:20:31;98.50;;;69.65;;
44434;SDS011;30138;20.964;105.830;2023-09-30T09:25:38;98.75;;;71.05;;
44434;SDS011;30138;20.964;105.830;2023-09-30T09:30:45;99.43;;;71.13;;
44434;SDS011;30138;20.964;105.830;2023-09-30T09:35:55;97.07;;;71.00;;
44434;SDS011;30138;20.964;105.830;2023-09-30T09:41:01;96.68;;;71.13;;
44434;SDS011;30138;20.964;105.830;2023-09-30T09:46:10;93.93;;;68.55;;
44434;SDS011;30138;20.964;105.830;2023-09-30T09:51:18;93.57;;;68.82;;
44434;SDS011;30138;20.964;105.830;2023-09-30T09:56:26;96.28;;;70.72;;
44434;SDS011;30138;20.964;105.830;2023-09-30T10:01:33;95.55;;;69.32;;
44434;SDS011;30138;20.964;105.830;2023-09-30T10:06:42;99.05;;;70.03;;
44434;SDS011;30138;20.964;105.830;2023-09-30T10:11:56;99.50;;;70.35;;
44434;SDS011;30138;20.964;105.830;2023-09-30T10:17:04;92.20;;;68.28;;
44434;SDS011;30138;20.964;105.830;2023-09-30T10:22:22;99.38;;;70.78;;
44434;SDS011;30138;20.964;105.830;2023-09-30T10:27:33;94.30;;;70.38;;
44434;SDS011;30138;20.964;105.830;2023-09-30T10:43:47;98.32;;;71.13;;
44434;SDS011;30138;20.964;105.830;2023-09-30T10:48:53;102.22;;;72.95;;
44434;SDS011;30138;20.964;105.830;2023-09-30T10:54:02;101.72;;;74.10;;
44434;SDS011;30138;20.964;105.830;2023-09-30T10:59:10;102.03;;;73.25;;
44434;SDS011;30138;20.964;105.830;2023-09-30T11:04:23;100.40;;;72.88;;
44434;SDS011;30138;20.964;105.830;2023-09-30T11:09:33;107.55;;;75.85;;
44434;SDS011;30138;20.964;105.830;2023-09-30T11:14:41;107.93;;;77.00;;
44434;SDS011;30138;20.964;105.830;2023-09-30T11:19:48;95.53;;;68.53;;
44434;SDS011;30138;20.964;105.830;2023-09-30T11:24:56;84.82;;;62.28;;
44434;SDS011;30138;20.964;105.830;2023-09-30T11:30:03;82.22;;;59.28;;
44434;SDS011;30138;20.964;105.830;2023-09-30T11:35:21;86.13;;;60.03;;
44434;SDS011;30138;20.964;105.830;2023-09-30T11:40:30;78.65;;;57.88;;
44434;SDS011;30138;20.964;105.830;2023-09-30T11:45:38;80.68;;;61.28;;
44434;SDS011;30138;20.964;105.830;2023-09-30T11:50:46;86.70;;;63.38;;
44434;SDS011;30138;20.964;105.830;2023-09-30T11:55:56;84.57;;;63.05;;
44434;SDS011;30138;20.964;105.830;2023-09-30T12:01:04;79.88;;;62.00;;
44434;SDS011;30138;20.964;105.830;2023-09-30T12:06:13;82.85;;;60.88;;
44434;SDS011;30138;20.964;105.830;2023-09-30T12:11:22;82.20;;;60.67;;
44434;SDS011;30138;20.964;105.830;2023-09-30T12:16:31;82.30;;;61.10;;
44434;SDS011;30138;20.964;105.830;2023-09-30T12:21:37;73.88;;;55.70;;
44434;SDS011;30138;20.964;105.830;2023-09-30T12:26:46;70.10;;;48.60;;
44434;SDS011;30138;20.964;105.830;2023-09-30T12:31:54;56.67;;;41.72;;
44434;SDS011;30138;20.964;105.830;2023-09-30T12:37:01;57.58;;;41.10;;
44434;SDS011;30138;20.964;105.830;2023-09-30T12:42:09;49.03;;;37.90;;
44434;SDS011;30138;20.964;105.830;2023-09-30T12:47:17;49.78;;;37.63;;
44434;SDS011;30138;20.964;105.830;2023-09-30T12:52:24;56.10;;;40.50;;
44434;SDS011;30138;20.964;105.830;2023-09-30T12:57:33;57.80;;;42.75;;
44434;SDS011;30138;20.964;105.830;2023-09-30T13:02:41;57.40;;;44.75;;
44434;SDS011;30138;20.964;105.830;2023-09-30T13:07:47;69.95;;;49.22;;
44434;SDS011;30138;20.964;105.830;2023-09-30T13:12:56;67.90;;;51.15;;
44434;SDS011;30138;20.964;105.830;2023-09-30T13:18:03;63.40;;;49.47;;
44434;SDS011;30138;20.964;105.830;2023-09-30T13:23:10;75.07;;;52.92;;
44434;SDS011;30138;20.964;105.830;2023-09-30T13:28:19;77.40;;;55.75;;
44434;SDS011;30138;20.964;105.830;2023-09-30T13:33:26;78.78;;;56.20;;
44434;SDS011;30138;20.964;105.830;2023-09-30T13:38:33;78.85;;;57.55;;
44434;SDS011;30138;20.964;105.830;2023-09-30T13:43:41;86.53;;;62.60;;
44434;SDS011;30138;20.964;105.830;2023-09-30T13:48:48;96.80;;;69.53;;
44434;SDS011;30138;20.964;105.830;2023-09-30T13:53:55;96.35;;;69.30;;
44434;SDS011;30138;20.964;105.830;2023-09-30T13:59:04;101.65;;;71.82;;
44434;SDS011;30138;20.964;105.830;2023-09-30T14:04:16;101.45;;;72.05;;
44434;SDS011;30138;20.964;105.830;2023-09-30T14:09:25;99.53;;;71.70;;
44434;SDS011;30138;20.964;105.830;2023-09-30T14:14:34;96.22;;;70.80;;
44434;SDS011;30138;20.964;105.830;2023-09-30T14:19:40;110.47;;;71.13;;
44434;SDS011;30138;20.964;105.830;2023-09-30T14:24:47;94.25;;;67.97;;
44434;SDS011;30138;20.964;105.830;2023-09-30T14:29:57;90.15;;;64.50;;
44434;SDS011;30138;20.964;105.830;2023-09-30T14:35:06;93.88;;;66.72;;
44434;SDS011;30138;20.964;105.830;2023-09-30T14:40:17;95.50;;;67.88;;
44434;SDS011;30138;20.964;105.830;2023-09-30T14:45:26;92.57;;;66.95;;
44434;SDS011;30138;20.964;105.830;2023-09-30T14:50:33;92.15;;;65.40;;
44434;SDS011;30138;20.964;105.830;2023-09-30T14:55:40;87.72;;;64.50;;
44434;SDS011;30138;20.964;105.830;2023-09-30T15:00:48;94.93;;;66.78;;
44434;SDS011;30138;20.964;105.830;2023-09-30T15:05:58;93.90;;;64.15;;
44434;SDS011;30138;20.964;105.830;2023-09-30T15:11:05;88.67;;;62.33;;
44434;SDS011;30138;20.964;105.830;2023-09-30T15:16:21;88.25;;;59.63;;
44434;SDS011;30138;20.964;105.830;2023-09-30T15:21:28;82.85;;;59.20;;
44434;SDS011;30138;20.964;105.830;2023-09-30T15:26:35;88.40;;;59.45;;
44434;SDS011;30138;20.964;105.830;2023-09-30T15:31:45;87.95;;;61.45;;
44434;SDS011;30138;20.964;105.830;2023-09-30T15:36:53;86.53;;;62.10;;
44434;SDS011;30138;20.964;105.830;2023-09-30T15:41:59;87.57;;;61.17;;
44434;SDS011;30138;20.964;105.830;2023-09-30T15:47:09;93.15;;;62.92;;
44434;SDS011;30138;20.964;105.830;2023-09-30T15:52:16;85.30;;;61.53;;
44434;SDS011;30138;20.964;105.830;2023-09-30T15:57:24;85.47;;;60.67;;
44434;SDS011;30138;20.964;105.830;2023-09-30T16:02:34;92.47;;;60.17;;
44434;SDS011;30138;20.964;105.830;2023-09-30T16:07:42;84.50;;;58.27;;
44434;SDS011;30138;20.964;105.830;2023-09-30T16:12:49;86.68;;;58.55;;
44434;SDS011;30138;20.964;105.830;2023-09-30T16:17:57;90.63;;;58.92;;
44434;SDS011;30138;20.964;105.830;2023-09-30T16:23:04;91.93;;;60.00;;
44434;SDS011;30138;20.964;105.830;2023-09-30T16:28:11;91.38;;;58.95;;
44434;SDS011;30138;20.964;105.830;2023-09-30T16:33:23;90.15;;;60.42;;
44434;SDS011;30138;20.964;105.830;2023-09-30T16:38:29;96.20;;;61.40;;
44434;SDS011;30138;20.964;105.830;2023-09-30T16:43:37;90.68;;;58.60;;
44434;SDS011;30138;20.964;105.830;2023-09-30T16:48:46;93.15;;;58.33;;
44434;SDS011;30138;20.964;105.830;2023-09-30T16:53:53;99.55;;;58.55;;
44434;SDS011;30138;20.964;105.830;2023-09-30T16:59:00;95.63;;;58.20;;
44434;SDS011;30138;20.964;105.830;2023-09-30T17:04:10;93.85;;;57.22;;
44434;SDS011;30138;20.964;105.830;2023-09-30T17:09:18;94.47;;;56.78;;
44434;SDS011;30138;20.964;105.830;2023-09-30T17:14:26;90.65;;;55.22;;
44434;SDS011;30138;20.964;105.830;2023-09-30T17:19:35;93.32;;;55.53;;
44434;SDS011;30138;20.964;105.830;2023-09-30T17:24:42;91.72;;;56.40;;
44434;SDS011;30138;20.964;105.830;2023-09-30T17:29:48;92.72;;;56.10;;
44434;SDS011;30138;20.964;105.830;2023-09-30T17:34:59;87.18;;;54.75;;
44434;SDS011;30138;20.964;105.830;2023-09-30T17:40:05;86.63;;;53.45;;
44434;SDS011;30138;20.964;105.830;2023-09-30T17:45:13;80.85;;;53.03;;
44434;SDS011;30138;20.964;105.830;2023-09-30T17:50:22;86.65;;;51.78;;
44434;SDS011;30138;20.964;105.830;2023-09-30T17:55:28;85.10;;;51.70;;
44434;SDS011;30138;20.964;105.830;2023-09-30T18:00:40;78.32;;;48.95;;
44434;SDS011;30138;20.964;105.830;2023-09-30T18:05:56;78.25;;;48.58;;
44434;SDS011;30138;20.964;105.830;2023-09-30T18:11:11;78.75;;;50.67;;
44434;SDS011;30138;20.964;105.830;2023-09-30T18:16:19;78.25;;;48.20;;
44434;SDS011;30138;20.964;105.830;2023-09-30T18:21:28;71.78;;;45.80;;
44434;SDS011;30138;20.964;105.830;2023-09-30T18:26:34;66.10;;;43.60;;
44434;SDS011;30138;20.964;105.830;2023-09-30T18:31:43;69.78;;;43.80;;
44434;SDS011;30138;20.964;105.830;2023-09-30T18:36:52;71.97;;;43.90;;
44434;SDS011;30138;20.964;105.830;2023-09-30T18:41:59;66.40;;;42.15;;
44434;SDS011;30138;20.964;105.830;2023-09-30T18:47:05;62.88;;;41.10;;
44434;SDS011;30138;20.964;105.830;2023-09-30T18:52:14;61.30;;;40.70;;
44434;SDS011;30138;20.964;105.830;2023-09-30T18:57:21;59.83;;;39.53;;
44434;SDS011;30138;20.964;105.830;2023-09-30T19:02:28;61.88;;;40.35;;
44434;SDS011;30138;20.964;105.830;2023-09-30T19:07:38;60.72;;;39.90;;
44434;SDS011;30138;20.964;105.830;2023-09-30T19:12:46;58.33;;;38.58;;
44434;SDS011;30138;20.964;105.830;2023-09-30T19:17:54;61.45;;;39.55;;
44434;SDS011;30138;20.964;105.830;2023-09-30T19:23:03;63.05;;;38.22;;
44434;SDS011;30138;20.964;105.830;2023-09-30T19:28:10;58.35;;;37.45;;
44434;SDS011;30138;20.964;105.830;2023-09-30T19:33:18;59.90;;;36.95;;
44434;SDS011;30138;20.964;105.830;2023-09-30T19:38:27;60.75;;;37.45;;
44434;SDS011;30138;20.964;105.830;2023-09-30T19:43:35;59.15;;;39.20;;
44434;SDS011;30138;20.964;105.830;2023-09-30T19:48:42;64.60;;;39.50;;
44434;SDS011;30138;20.964;105.830;2023-09-30T19:53:51;62.40;;;40.35;;
44434;SDS011;30138;20.964;105.830;2023-09-30T19:58:59;68.63;;;40.67;;
44434;SDS011;30138;20.964;105.830;2023-09-30T20:04:05;73.65;;;41.88;;
44434;SDS011;30138;20.964;105.830;2023-09-30T20:09:14;68.68;;;42.50;;
44434;SDS011;30138;20.964;105.830;2023-09-30T20:14:24;67.60;;;42.78;;
44434;SDS011;30138;20.964;105.830;2023-09-30T20:19:31;72.95;;;43.25;;
44434;SDS011;30138;20.964;105.830;2023-09-30T20:24:40;69.72;;;44.10;;
44434;SDS011;30138;20.964;105.830;2023-09-30T20:29:48;75.97;;;45.30;;
44434;SDS011;30138;20.964;105.830;2023-09-30T20:34:56;68.50;;;43.70;;
44434;SDS011;30138;20.964;105.830;2023-09-30T20:40:08;74.63;;;43.63;;
44434;SDS011;30138;20.964;105.830;2023-09-30T20:45:16;72.25;;;44.80;;
44434;SDS011;30138;20.964;105.830;2023-09-30T20:50:23;64.60;;;41.35;;
44434;SDS011;30138;20.964;105.830;2023-09-30T20:55:33;62.97;;;42.28;;
44434;SDS011;30138;20.964;105.830;2023-09-30T21:00:40;68.83;;;43.67;;
44434;SDS011;30138;20.964;105.830;2023-09-30T21:05:46;65.35;;;42.28;;
44434;SDS011;30138;20.964;105.830;2023-09-30T21:10:57;65.80;;;42.17;;
44434;SDS011;30138;20.964;105.830;2023-09-30T21:16:05;70.82;;;43.20;;
44434;SDS011;30138;20.964;105.830;2023-09-30T21:21:13;67.18;;;43.20;;
44434;SDS011;30138;20.964;105.830;2023-09-30T21:26:21;66.78;;;42.13;;
44434;SDS011;30138;20.964;105.830;2023-09-30T21:31:29;72.85;;;42.92;;
44434;SDS011;30138;20.964;105.830;2023-09-30T21:36:35;71.63;;;43.20;;
44434;SDS011;30138;20.964;105.830;2023-09-30T21:41:45;69.05;;;42.38;;
44434;SDS011;30138;20.964;105.830;2023-09-30T21:46:53;67.03;;;44.58;;
44434;SDS011;30138;20.964;105.830;2023-09-30T21:51:59;73.68;;;44.75;;
44434;SDS011;30138;20.964;105.830;2023-09-30T21:57:09;71.18;;;45.25;;
44434;SDS011;30138;20.964;105.830;2023-09-30T22:02:17;73.00;;;47.97;;
44434;SDS011;30138;20.964;105.830;2023-09-30T22:07:24;80.57;;;51.08;;
44434;SDS011;30138;20.964;105.830;2023-09-30T22:12:35;86.80;;;51.47;;
44434;SDS011;30138;20.964;105.830;2023-09-30T22:17:42;80.72;;;52.78;;
44434;SDS011;30138;20.964;105.830;2023-09-30T22:22:52;84.90;;;53.90;;
44434;SDS011;30138;20.964;105.830;2023-09-30T22:28:02;85.22;;;54.30;;
44434;SDS011;30138;20.964;105.830;2023-09-30T22:33:10;86.38;;;53.50;;
44434;SDS011;30138;20.964;105.830;2023-09-30T22:38:17;86.70;;;52.38;;
44434;SDS011;30138;20.964;105.830;2023-09-30T22:43:26;78.40;;;51.15;;
44434;SDS011;30138;20.964;105.830;2023-09-30T22:48:34;77.40;;;51.05;;
44434;SDS011;30138;20.964;105.830;2023-09-30T22:53:41;81.63;;;50.85;;
44434;SDS011;30138;20.964;105.830;2023-09-30T22:58:50;77.13;;;49.00;;
44434;SDS011;30138;20.964;105.830;2023-09-30T23:03:56;83.60;;;49.72;;
44434;SDS011;30138;20.964;105.830;2023-09-30T23:09:05;81.00;;;52.05;;
44434;SDS011;30138;20.964;105.830;2023-09-30T23:14:14;82.43;;;51.40;;
44434;SDS011;30138;20.964;105.830;2023-09-30T23:19:21;87.18;;;52.72;;
44434;SDS011;30138;20.964;105.830;2023-09-30T23:24:29;83.15;;;52.92;;
44434;SDS011;30138;20.964;105.830;2023-09-30T23:29:38;83.75;;;54.63;;
44434;SDS011;30138;20.964;105.830;2023-09-30T23:34:46;92.47;;;55.15;;
44434;SDS011;30138;20.964;105.830;2023-09-30T23:39:52;87.10;;;55.35;;
44434;SDS011;30138;20.964;105.830;2023-09-30T23:45:02;84.43;;;55.45;;
44434;SDS011;30138;20.964;105.830;2023-09-30T23:50:13;83.50;;;55.05;;
44434;SDS011;30138;20.964;105.830;2023-09-30T23:55:21;89.60;;;55.38;;
